createdAt,value
2023-02-17T00:00:15.643Z,8.5
2023-02-17T00:10:17.566Z,8.6
2023-02-17T00:20:19.471Z,8.6
2023-02-17T00:30:21.889Z,8.7
2023-02-17T00:40:24.097Z,8.7
2023-02-17T00:50:26.623Z,8.7
2023-02-17T01:00:28.951Z,8.8
2023-02-17T01:10:30.851Z,8.8
2023-02-17T01:20:32.993Z,8.9
2023-02-17T01:30:35.169Z,8.9
2023-02-17T01:40:37.425Z,9
2023-02-17T01:50:39.137Z,9
2023-02-17T02:00:41.266Z,9
2023-02-17T02:10:43.531Z,9
2023-02-17T02:30:48.372Z,9
2023-02-17T02:40:50.825Z,8.9
2023-02-17T02:50:52.538Z,9
2023-02-17T03:00:55.149Z,9.1
2023-02-17T03:10:56.917Z,9.2
2023-02-17T03:41:02.892Z,9.4
2023-02-17T03:51:04.894Z,9.5
2023-02-17T04:01:06.984Z,9.5
2023-02-17T04:11:08.614Z,9.5
2023-02-17T04:21:11.257Z,9.7
2023-02-17T04:31:13.268Z,9.7
2023-02-17T04:41:15.395Z,9.7
2023-02-17T04:51:17.347Z,9.8
2023-02-17T05:01:19.424Z,9.9
2023-02-17T05:21:23.370Z,9.9
2023-02-17T05:31:25.595Z,10
2023-02-17T05:41:27.647Z,10.1
2023-02-17T05:51:29.270Z,10
2023-02-17T06:01:31.235Z,10
2023-02-17T06:11:33.558Z,10.1
2023-02-17T06:31:37.492Z,10
2023-02-17T06:41:39.178Z,10
2023-02-17T06:51:41.501Z,10
2023-02-17T07:01:43.756Z,9.8
2023-02-17T07:21:48.005Z,9.6
2023-02-17T07:31:50.459Z,9.5
2023-02-17T07:41:52.270Z,9.7
2023-02-17T07:51:54.552Z,9.9
2023-02-17T08:01:56.538Z,10.1
2023-02-17T08:11:58.852Z,10.1
2023-02-17T08:22:01.041Z,10.3
2023-02-17T08:32:03.768Z,10.4
2023-02-17T08:42:06.158Z,10.5
2023-02-17T08:52:08.327Z,10.5
2023-02-17T09:02:10.938Z,10.6
2023-02-17T09:12:13.192Z,10.7
2023-02-17T09:22:29.709Z,10.8
2023-02-17T09:32:18.044Z,11
2023-02-17T09:42:20.165Z,11.2
2023-02-17T09:52:22.073Z,11.2
2023-02-17T10:22:28.706Z,11.4
2023-02-17T10:32:30.888Z,11.5
2023-02-17T10:42:33.089Z,11.7
2023-02-17T10:52:34.887Z,11.8
2023-02-17T11:12:39.518Z,11.9
2023-02-17T11:22:41.655Z,12.1
2023-02-17T11:32:43.556Z,12.2
2023-02-17T11:32:50.463Z,12.2
2023-02-17T11:42:52.639Z,12.3
2023-02-17T11:52:54.466Z,12.4
2023-02-17T12:02:56.427Z,12.5
2023-02-17T12:12:58.893Z,12.6
2023-02-17T12:23:00.714Z,12.6
2023-02-17T12:33:02.759Z,12.6
2023-02-17T12:43:04.426Z,12.6
2023-02-17T12:53:06.263Z,12.6
2023-02-17T13:03:08.561Z,12.6
2023-02-17T13:13:10.708Z,12.6
2023-02-17T13:23:12.730Z,12.6
2023-02-17T13:33:14.801Z,12.6
2023-02-17T13:43:16.890Z,12.6
2023-02-17T13:53:19.315Z,12.6
2023-02-17T14:03:21.411Z,12.4
2023-02-17T14:13:23.752Z,11.7
2023-02-17T14:23:26.006Z,11.3
2023-02-17T14:33:28.280Z,11.1
2023-02-17T14:43:30.330Z,11
2023-02-17T15:03:34.426Z,10.9
2023-02-17T15:13:36.993Z,10.9
2023-02-17T15:23:39.165Z,10.7
2023-02-17T15:33:41.129Z,10.9
2023-02-17T15:43:43.335Z,11.1
2023-02-17T15:53:45.947Z,11.2
2023-02-17T16:03:48.098Z,11.2
2023-02-17T16:13:49.862Z,11.3
2023-02-17T16:23:51.955Z,11.4
2023-02-17T16:33:54.510Z,11.5
2023-02-17T16:43:56.690Z,11.5
2023-02-17T16:53:59.046Z,11.4
2023-02-17T17:04:01.128Z,11.5
2023-02-17T17:14:03.673Z,11.4
2023-02-17T17:24:06.105Z,11.4
2023-02-17T17:34:08.120Z,11.4
2023-02-17T18:14:16.098Z,11.4
2023-02-17T19:54:39.301Z,10.6
2023-02-17T22:05:06.967Z,9.6
2023-02-17T22:15:09.495Z,9.6
2023-02-17T23:25:24.342Z,9.5
2023-02-17T23:35:26.419Z,9.5
2023-02-17T23:45:28.859Z,9.5
